Time;durP1;ratioP1;P1;durP2;ratioP2;P2;SDS_P1;SDS_P2;PMS_P1;PMS_P2;Temp;Humidity;BMP_temperature;BMP_pressure;BME280_temperature;BME280_humidity;BME280_pressure;Samples;Min_cycle;Max_cycle;Signal;HPM_P1;HPM_P2
2023/10/20 00:02:28;;;;;;;3.50;3.20;;;19.70;91.30;;;;;;5034561;28;20307;-64
2023/10/20 00:04:55;;;;;;;4.00;3.30;;;19.80;91.40;;;;;;5034448;28;20206;-64
2023/10/20 00:07:21;;;;;;;3.13;2.83;;;19.80;91.40;;;;;;5033688;28;20504;-65
2023/10/20 00:09:49;;;;;;;4.13;3.60;;;19.70;91.50;;;;;;5015714;28;20202;-65
2023/10/20 00:12:18;;;;;;;4.27;3.13;;;19.80;91.70;;;;;;5034181;28;20524;-64
2023/10/20 00:14:45;;;;;;;3.90;3.57;;;19.80;91.60;;;;;;5014505;28;20637;-64
2023/10/20 00:17:12;;;;;;;3.90;3.50;;;19.70;91.70;;;;;;5018300;28;20285;-64
2023/10/20 00:19:39;;;;;;;3.17;2.87;;;19.70;91.80;;;;;;5014131;28;20242;-64
2023/10/20 00:22:07;;;;;;;6.10;3.40;;;19.70;91.90;;;;;;5033185;28;20229;-64
2023/10/20 00:24:34;;;;;;;4.23;3.80;;;19.70;92.00;;;;;;5033231;28;20221;-65
2023/10/20 00:27:03;;;;;;;3.57;3.13;;;19.60;92.00;;;;;;5015955;28;20740;-63
2023/10/20 00:29:31;;;;;;;4.13;3.27;;;19.60;92.00;;;;;;5014020;28;20298;-64
2023/10/20 00:31:58;;;;;;;5.67;3.00;;;19.60;92.40;;;;;;5018686;28;20237;-64
2023/10/20 00:34:25;;;;;;;3.20;2.90;;;19.60;92.10;;;;;;5017018;28;20736;-64
2023/10/20 00:36:51;;;;;;;3.33;3.03;;;19.60;92.10;;;;;;5028361;28;20207;-64
2023/10/20 00:39:19;;;;;;;5.13;3.50;;;19.60;92.60;;;;;;5015116;28;20234;-63
2023/10/20 00:41:45;;;;;;;5.73;3.80;;;19.60;92.20;;;;;;5028066;28;20276;-64
2023/10/20 00:44:12;;;;;;;3.83;3.50;;;19.60;92.20;;;;;;5029275;28;20203;-63
2023/10/20 00:46:43;;;;;;;4.17;3.77;;;19.60;92.20;;;;;;5016937;28;20234;-63
2023/10/20 00:49:10;;;;;;;3.80;3.50;;;19.60;92.30;;;;;;5030929;28;20226;-64
2023/10/20 00:51:38;;;;;;;5.93;4.00;;;19.50;92.20;;;;;;5029110;28;20199;-65
2023/10/20 00:54:07;;;;;;;3.93;3.50;;;19.50;92.20;;;;;;5035463;28;20739;-64
2023/10/20 00:56:34;;;;;;;3.80;3.50;;;19.50;92.30;;;;;;5038580;28;20203;-65
2023/10/20 00:59:02;;;;;;;4.23;3.87;;;19.50;92.30;;;;;;5013522;28;20226;-63
2023/10/20 01:01:29;;;;;;;3.87;3.57;;;19.50;92.30;;;;;;5012712;28;20335;-63
2023/10/20 01:03:57;;;;;;;3.87;3.53;;;19.50;92.40;;;;;;5032974;28;20198;-63
2023/10/20 01:06:25;;;;;;;4.83;3.83;;;19.50;92.40;;;;;;5032818;28;20210;-64
2023/10/20 01:08:56;;;;;;;4.17;3.57;;;19.50;92.40;;;;;;5032531;28;20301;-64
2023/10/20 01:11:23;;;;;;;5.30;3.47;;;19.50;92.40;;;;;;5032302;28;20681;-63
2023/10/20 01:13:50;;;;;;;4.83;3.53;;;19.50;92.40;;;;;;5032719;28;20590;-64
2023/10/20 01:16:18;;;;;;;4.40;3.97;;;19.40;92.80;;;;;;5032530;28;20256;-63
2023/10/20 01:18:45;;;;;;;5.77;4.40;;;19.40;92.40;;;;;;5032663;28;20210;-63
2023/10/20 01:21:16;;;;;;;4.97;4.47;;;19.50;92.50;;;;;;5026201;28;20202;-63
2023/10/20 01:23:42;;;;;;;4.97;4.50;;;19.40;92.40;;;;;;5012829;28;20241;-63
2023/10/20 01:26:10;;;;;;;3.93;3.63;;;19.40;92.40;;;;;;5029360;28;20249;-64
2023/10/20 01:28:37;;;;;;;4.70;3.90;;;19.40;92.40;;;;;;4970679;28;20200;-64
2023/10/20 01:31:04;;;;;;;5.30;4.13;;;19.40;92.40;;;;;;5020717;28;20362;-64
2023/10/20 01:33:31;;;;;;;5.37;4.20;;;19.40;92.40;;;;;;5019387;28;20237;-64
2023/10/20 01:35:58;;;;;;;4.33;4.03;;;19.40;92.80;;;;;;5019644;28;20671;-64
2023/10/20 01:38:25;;;;;;;5.93;3.97;;;19.40;92.50;;;;;;5012381;28;20199;-64
2023/10/20 01:40:51;;;;;;;4.00;3.60;;;19.40;92.50;;;;;;5016347;28;20584;-64
2023/10/20 01:43:20;;;;;;;3.50;3.20;;;19.40;92.50;;;;;;5013871;28;20195;-64
2023/10/20 01:45:46;;;;;;;5.07;3.30;;;19.40;92.50;;;;;;5028560;28;20199;-65
2023/10/20 01:48:13;;;;;;;8.47;4.00;;;19.40;92.50;;;;;;5021969;28;20233;-64
2023/10/20 01:50:40;;;;;;;4.30;3.43;;;19.40;92.60;;;;;;5021514;28;20207;-64
2023/10/20 01:53:07;;;;;;;3.47;3.10;;;19.40;92.60;;;;;;5014995;28;20709;-63
2023/10/20 01:55:35;;;;;;;3.57;3.20;;;19.30;92.50;;;;;;5026704;28;20226;-64
2023/10/20 01:58:04;;;;;;;3.63;3.27;;;19.40;92.60;;;;;;5032146;28;20317;-64
2023/10/20 02:00:32;;;;;;;3.73;3.43;;;19.40;92.60;;;;;;5015389;28;20306;-63
2023/10/20 02:02:59;;;;;;;4.67;3.43;;;19.40;92.60;;;;;;5018066;28;20245;-63
2023/10/20 02:05:26;;;;;;;3.77;3.47;;;19.40;92.60;;;;;;5012295;28;20218;-64
2023/10/20 02:07:53;;;;;;;4.87;3.70;;;19.30;92.50;;;;;;5011582;28;20231;-64
2023/10/20 02:10:21;;;;;;;4.03;3.63;;;19.40;92.90;;;;;;5012169;28;20203;-64
2023/10/20 02:12:47;;;;;;;4.53;4.13;;;19.40;92.60;;;;;;4994244;28;20235;-64
2023/10/20 02:15:14;;;;;;;4.00;3.60;;;19.40;92.50;;;;;;5011601;28;20231;-63
2023/10/20 02:17:42;;;;;;;3.50;3.20;;;19.40;92.50;;;;;;5011892;28;20663;-64
2023/10/20 02:20:10;;;;;;;6.40;3.40;;;19.30;92.50;;;;;;5011871;28;20211;-64
2023/10/20 02:22:39;;;;;;;4.57;3.77;;;19.30;92.50;;;;;;5030411;28;20198;-63
2023/10/20 02:25:08;;;;;;;4.77;3.60;;;19.30;92.50;;;;;;4970792;28;20322;-64
2023/10/20 02:27:36;;;;;;;5.47;4.10;;;19.30;92.60;;;;;;4976949;28;20234;-64
2023/10/20 02:30:03;;;;;;;4.20;3.90;;;19.30;92.60;;;;;;5011769;28;20538;-65
2023/10/20 02:32:30;;;;;;;4.67;3.63;;;19.30;92.60;;;;;;5028400;28;20455;-64
2023/10/20 02:34:58;;;;;;;3.47;3.17;;;19.30;92.60;;;;;;5014499;28;20202;-64
2023/10/20 02:37:25;;;;;;;3.70;3.40;;;19.30;92.60;;;;;;5016428;28;20206;-64
2023/10/20 02:39:52;;;;;;;3.53;3.23;;;19.30;92.60;;;;;;5011927;28;20203;-64
2023/10/20 02:42:19;;;;;;;3.70;3.30;;;19.30;92.60;;;;;;5016824;28;20233;-63
2023/10/20 02:44:46;;;;;;;3.97;3.37;;;19.30;92.60;;;;;;5025945;28;20800;-64
2023/10/20 02:47:12;;;;;;;3.23;2.93;;;19.30;92.60;;;;;;5031342;28;20194;-64
2023/10/20 02:49:40;;;;;;;3.77;2.87;;;19.30;92.60;;;;;;5013806;28;20223;-64
2023/10/20 02:52:08;;;;;;;4.00;3.13;;;19.30;92.60;;;;;;5016237;28;20199;-64
2023/10/20 02:54:35;;;;;;;4.27;3.40;;;19.30;92.60;;;;;;5021850;28;20226;-64
2023/10/20 02:57:06;;;;;;;4.23;3.67;;;19.20;92.50;;;;;;5015938;28;20227;-64
2023/10/20 02:59:32;;;;;;;4.33;3.87;;;19.30;92.60;;;;;;4981457;28;20462;-64
2023/10/20 03:02:00;;;;;;;3.60;3.30;;;19.20;92.50;;;;;;5015131;28;20306;-64
2023/10/20 03:04:27;;;;;;;3.80;3.40;;;19.30;92.50;;;;;;5022950;28;20214;-64
2023/10/20 03:06:53;;;;;;;4.27;3.87;;;19.30;92.50;;;;;;5033743;28;20198;-64
2023/10/20 03:09:23;;;;;;;3.90;3.50;;;19.20;92.40;;;;;;5016471;28;20294;-64
2023/10/20 03:11:50;;;;;;;6.00;3.90;;;19.30;92.50;;;;;;5031432;28;20706;-64
2023/10/20 03:14:17;;;;;;;3.73;3.43;;;19.30;92.50;;;;;;5035083;28;20222;-65
2023/10/20 03:16:45;;;;;;;4.10;3.33;;;19.30;92.50;;;;;;5027939;28;20202;-65
2023/10/20 03:19:12;;;;;;;4.30;3.90;;;19.30;92.50;;;;;;5023975;28;20595;-64
2023/10/20 03:21:39;;;;;;;4.30;3.90;;;19.30;92.50;;;;;;5029785;28;20202;-64
2023/10/20 03:24:07;;;;;;;4.87;4.20;;;19.30;92.40;;;;;;4982145;28;20203;-64
2023/10/20 03:26:35;;;;;;;3.37;3.07;;;19.30;92.40;;;;;;5020600;28;20240;-64
2023/10/20 03:29:03;;;;;;;4.47;3.77;;;19.20;92.30;;;;;;5034306;28;20210;-64
2023/10/20 03:31:30;;;;;;;3.30;3.00;;;19.20;92.20;;;;;;5032359;28;20234;-64
2023/10/20 03:33:56;;;;;;;4.63;3.27;;;19.30;92.20;;;;;;5019013;28;20231;-64
2023/10/20 03:36:23;;;;;;;3.70;3.03;;;19.30;92.20;;;;;;5021060;28;20207;-63
2023/10/20 03:38:50;;;;;;;5.63;3.50;;;19.30;92.10;;;;;;5019199;28;20207;-64
2023/10/20 03:41:17;;;;;;;5.23;3.30;;;19.30;92.10;;;;;;5031010;28;20230;-64
2023/10/20 03:43:50;;;;;;;3.63;3.10;;;19.30;92.10;;;;;;4982542;28;20442;-63
2023/10/20 03:46:23;;;;;;;3.47;3.17;;;19.30;92.10;;;;;;5027257;28;20226;-64
2023/10/20 03:48:50;;;;;;;6.23;3.00;;;19.30;92.10;;;;;;5026922;28;20230;-64
2023/10/20 03:51:18;;;;;;;4.80;2.73;;;19.30;92.10;;;;;;5030354;28;20201;-64
2023/10/20 03:53:50;;;;;;;2.90;2.70;;;19.30;92.40;;;;;;5023631;28;20309;-64
2023/10/20 03:56:18;;;;;;;4.10;3.33;;;19.30;92.50;;;;;;5014837;28;20227;-64
2023/10/20 03:58:47;;;;;;;6.27;3.23;;;19.30;92.10;;;;;;5019426;28;20669;-64
2023/10/20 04:01:14;;;;;;;5.97;2.70;;;19.30;92.10;;;;;;5017268;28;20249;-64
2023/10/20 04:03:43;;;;;;;3.33;3.03;;;19.30;92.10;;;;;;5013792;28;20210;-64
2023/10/20 04:06:11;;;;;;;4.13;3.00;;;19.30;92.10;;;;;;5015837;28;20253;-64
2023/10/20 04:08:38;;;;;;;3.67;3.33;;;19.20;92.20;;;;;;5015409;28;20245;-64
2023/10/20 04:11:05;;;;;;;3.30;3.00;;;19.20;92.20;;;;;;5031288;28;20210;-65
2023/10/20 04:13:32;;;;;;;3.97;3.10;;;19.30;92.20;;;;;;5029767;28;20226;-65
2023/10/20 04:16:11;;;;;;;3.33;3.03;;;19.30;92.20;;;;;;5031812;28;20234;-64
2023/10/20 04:18:38;;;;;;;3.20;2.83;;;19.20;92.20;;;;;;5025344;28;20667;-63
2023/10/20 04:21:05;;;;;;;4.43;3.43;;;19.20;92.10;;;;;;5026173;28;20211;-64
2023/10/20 04:23:32;;;;;;;4.47;3.87;;;19.30;92.20;;;;;;5031842;28;20206;-64
2023/10/20 04:25:59;;;;;;;4.50;3.30;;;19.30;92.20;;;;;;5017128;28;20203;-64
2023/10/20 04:28:32;;;;;;;5.33;3.73;;;19.20;92.10;;;;;;5022388;28;20198;-64
2023/10/20 04:42:22;;;;;;;4.57;3.30;;;19.20;92.10;;;;;;5018549;28;20225;-64
2023/10/20 04:47:59;;;;;;;4.03;3.40;;;19.20;92.10;;;;;;5018702;28;20286;-64
2023/10/20 04:50:56;;;;;;;6.17;4.10;;;19.20;92.10;;;;;;5031668;28;20230;-64
2023/10/20 04:58:51;;;;;;;4.13;3.73;;;19.20;92.20;;;;;;5023121;28;20636;-64
2023/10/20 05:01:21;;;;;;;4.17;3.73;;;19.20;92.10;;;;;;5012994;28;20219;-64
2023/10/20 05:03:53;;;;;;;4.50;4.00;;;19.20;92.10;;;;;;5031021;28;20226;-64
2023/10/20 05:06:25;;;;;;;4.90;3.90;;;19.10;92.10;;;;;;5031344;28;20210;-64
2023/10/20 05:08:52;;;;;;;4.20;3.80;;;19.10;92.10;;;;;;5029562;28;20481;-64
2023/10/20 05:11:20;;;;;;;5.60;3.97;;;19.10;92.10;;;;;;5029469;28;20198;-64
2023/10/20 05:13:47;;;;;;;4.67;3.83;;;19.10;92.50;;;;;;5028501;28;20230;-65
2023/10/20 05:16:13;;;;;;;4.97;4.47;;;19.20;92.20;;;;;;5017256;28;20201;-64
2023/10/20 05:18:42;;;;;;;4.13;3.70;;;19.10;92.10;;;;;;5017226;28;20810;-64
2023/10/20 05:21:12;;;;;;;4.80;3.97;;;19.10;92.10;;;;;;5027726;28;20196;-64
2023/10/20 05:23:39;;;;;;;5.43;4.03;;;19.10;92.10;;;;;;5023523;28;20675;-64
2023/10/20 05:26:06;;;;;;;4.70;3.33;;;19.10;92.00;;;;;;5035300;28;20262;-63
2023/10/20 05:28:33;;;;;;;4.50;3.70;;;19.10;92.00;;;;;;5034474;28;20703;-63
2023/10/20 05:31:00;;;;;;;4.77;3.40;;;19.10;91.90;;;;;;5052960;28;20201;-64
2023/10/20 05:33:27;;;;;;;5.57;3.80;;;19.10;91.90;;;;;;4997738;28;20261;-64
2023/10/20 05:35:54;;;;;;;4.03;3.53;;;19.10;91.90;;;;;;5054536;28;20245;-64
2023/10/20 05:38:22;;;;;;;4.03;3.63;;;19.20;92.00;;;;;;5069440;28;20233;-64
2023/10/20 05:40:58;;;;;;;3.63;3.33;;;19.10;91.90;;;;;;5029391;28;20226;-64
2023/10/20 05:43:25;;;;;;;5.00;3.27;;;19.10;92.00;;;;;;5018739;28;20221;-65
2023/10/20 05:45:53;;;;;;;4.47;3.20;;;19.10;91.90;;;;;;5036387;28;20238;-65
2023/10/20 05:48:20;;;;;;;6.00;3.00;;;19.10;91.80;;;;;;5040152;28;20584;-66
2023/10/20 05:50:47;;;;;;;3.53;3.00;;;19.10;91.80;;;;;;5036984;28;20226;-66
2023/10/20 05:53:14;;;;;;;3.43;3.07;;;19.10;91.90;;;;;;5036634;28;20262;-65
2023/10/20 05:55:43;;;;;;;3.23;2.93;;;19.10;91.90;;;;;;5027967;28;20405;-65
2023/10/20 05:58:12;;;;;;;5.17;3.10;;;19.10;91.90;;;;;;5034179;28;20202;-65
2023/10/20 06:00:39;;;;;;;4.20;3.07;;;19.10;92.20;;;;;;5021789;28;20528;-64
2023/10/20 06:03:07;;;;;;;3.20;2.90;;;19.10;91.90;;;;;;5034474;28;20229;-64
2023/10/20 06:05:34;;;;;;;3.10;2.80;;;19.10;91.90;;;;;;5038963;28;20437;-65
2023/10/20 06:08:02;;;;;;;3.50;2.90;;;19.10;91.90;;;;;;5030700;28;20210;-64
2023/10/20 06:10:29;;;;;;;2.53;2.33;;;19.10;91.90;;;;;;5026685;28;20226;-64
2023/10/20 06:12:58;;;;;;;5.13;3.50;;;19.10;91.90;;;;;;5017862;28;20207;-65
2023/10/20 06:15:27;;;;;;;4.77;3.07;;;19.10;91.90;;;;;;5010890;28;20574;-65
2023/10/20 06:17:57;;;;;;;4.43;3.10;;;19.10;91.90;;;;;;5015649;28;20199;-65
2023/10/20 06:20:24;;;;;;;4.10;2.97;;;19.00;91.90;;;;;;5029918;28;20670;-64
2023/10/20 06:22:50;;;;;;;3.43;3.13;;;19.10;91.90;;;;;;5019012;28;20206;-65
2023/10/20 06:25:17;;;;;;;4.03;3.30;;;19.10;91.90;;;;;;5028181;28;20232;-64
2023/10/20 06:27:45;;;;;;;5.77;3.57;;;19.00;91.80;;;;;;5031066;28;20202;-64
2023/10/20 06:30:22;;;;;;;4.03;3.33;;;19.00;91.80;;;;;;5030451;28;20217;-64
2023/10/20 06:33:11;;;;;;;5.27;3.43;;;19.00;91.90;;;;;;5029356;28;20201;-65
2023/10/20 06:35:48;;;;;;;3.57;3.27;;;19.00;91.90;;;;;;5027664;28;20314;-64
2023/10/20 06:38:17;;;;;;;6.17;3.67;;;19.00;91.90;;;;;;5019987;28;20229;-64
2023/10/20 06:40:44;;;;;;;3.70;3.40;;;19.00;92.20;;;;;;5025737;28;20203;-64
2023/10/20 06:43:11;;;;;;;4.43;3.50;;;19.00;91.90;;;;;;5021267;28;20217;-64
2023/10/20 06:45:39;;;;;;;5.80;3.90;;;19.00;91.90;;;;;;5046143;28;20218;-65
2023/10/20 06:48:06;;;;;;;3.47;3.17;;;19.10;91.90;;;;;;5044041;28;20200;-64
2023/10/20 06:50:33;;;;;;;5.03;3.57;;;19.00;91.90;;;;;;5028231;28;20209;-64
2023/10/20 06:53:00;;;;;;;7.30;3.73;;;19.00;91.90;;;;;;5028495;28;20453;-64
2023/10/20 06:55:27;;;;;;;3.83;3.53;;;19.00;91.90;;;;;;5028659;28;20333;-64
2023/10/20 06:57:54;;;;;;;3.27;3.03;;;19.10;92.00;;;;;;5029026;28;20207;-64
2023/10/20 07:00:21;;;;;;;4.00;3.53;;;19.00;91.90;;;;;;5028462;28;20728;-64
2023/10/20 07:02:49;;;;;;;3.97;3.23;;;19.10;92.00;;;;;;5028606;28;20336;-64
2023/10/20 07:05:17;;;;;;;4.17;3.70;;;19.10;92.00;;;;;;5029097;28;20627;-63
2023/10/20 07:07:46;;;;;;;3.50;3.20;;;19.10;92.00;;;;;;4978017;28;20301;-64
2023/10/20 07:10:13;;;;;;;4.10;3.27;;;19.10;92.00;;;;;;4978482;28;20299;-65
2023/10/20 07:12:40;;;;;;;3.63;3.33;;;19.10;92.00;;;;;;5027947;28;20562;-65
2023/10/20 07:15:08;;;;;;;5.03;3.57;;;19.10;92.00;;;;;;5027808;28;20694;-64
2023/10/20 07:17:35;;;;;;;4.80;3.60;;;19.10;92.00;;;;;;5028096;28;20751;-65
2023/10/20 07:20:05;;;;;;;3.80;3.40;;;19.10;92.40;;;;;;5028155;28;20681;-65
2023/10/20 07:22:32;;;;;;;3.73;3.43;;;19.10;92.10;;;;;;5026314;28;20225;-64
2023/10/20 07:25:00;;;;;;;3.93;3.50;;;19.10;92.10;;;;;;5028174;28;20289;-64
2023/10/20 07:27:28;;;;;;;4.13;3.73;;;19.10;92.10;;;;;;5027171;28;20289;-64
2023/10/20 07:29:55;;;;;;;4.10;3.70;;;19.10;92.10;;;;;;5023125;28;20208;-64
2023/10/20 07:32:21;;;;;;;4.87;3.90;;;19.10;92.20;;;;;;5033971;28;20256;-64
2023/10/20 07:34:49;;;;;;;4.13;3.73;;;19.10;92.20;;;;;;5048283;28;20230;-64
2023/10/20 07:37:18;;;;;;;5.97;4.20;;;19.10;92.10;;;;;;5030942;28;20199;-65
2023/10/20 07:39:45;;;;;;;3.80;3.50;;;19.10;92.10;;;;;;5032195;28;20265;-64
2023/10/20 07:42:16;;;;;;;5.27;4.10;;;19.10;92.10;;;;;;5031794;28;20260;-65
2023/10/20 07:44:43;;;;;;;4.37;3.97;;;19.20;92.10;;;;;;5027325;28;20227;-65
2023/10/20 07:47:11;;;;;;;6.47;4.20;;;19.20;92.10;;;;;;5030697;28;20223;-65
2023/10/20 07:49:38;;;;;;;3.70;3.40;;;19.20;92.10;;;;;;5012057;28;20246;-64
2023/10/20 07:52:05;;;;;;;4.13;3.73;;;19.20;92.00;;;;;;5012977;28;20286;-64
2023/10/20 07:54:33;;;;;;;3.97;3.57;;;19.20;92.00;;;;;;5027693;28;20475;-64
2023/10/20 07:57:00;;;;;;;4.90;3.80;;;19.20;92.00;;;;;;5031185;28;20218;-65
2023/10/20 07:59:28;;;;;;;3.93;3.53;;;19.20;92.30;;;;;;5031313;28;20353;-64
2023/10/20 08:01:56;;;;;;;4.23;3.80;;;19.20;92.30;;;;;;5026898;28;20312;-64
2023/10/20 08:04:23;;;;;;;4.20;3.77;;;19.20;91.90;;;;;;5031662;28;20440;-64
2023/10/20 08:06:50;;;;;;;5.13;4.10;;;19.20;91.90;;;;;;5031353;28;20297;-64
2023/10/20 08:09:17;;;;;;;6.67;3.97;;;19.30;91.70;;;;;;5031380;28;20249;-64
2023/10/20 08:11:46;;;;;;;4.73;4.17;;;19.30;91.70;;;;;;5029371;28;20218;-64
2023/10/20 08:14:13;;;;;;;4.20;3.70;;;19.30;91.60;;;;;;5031274;28;20218;-65
2023/10/20 08:16:40;;;;;;;5.00;4.10;;;19.20;91.70;;;;;;5020164;28;20663;-65
2023/10/20 08:19:07;;;;;;;4.90;4.20;;;19.10;91.80;;;;;;5042691;28;20268;-64
2023/10/20 08:21:34;;;;;;;4.90;4.30;;;19.10;92.00;;;;;;5038500;28;20226;-65
2023/10/20 08:24:03;;;;;;;5.03;4.53;;;19.00;92.10;;;;;;5031151;28;20700;-64
2023/10/20 08:26:31;;;;;;;4.40;4.00;;;18.90;92.00;;;;;;5030367;28;20206;-64
2023/10/20 08:29:05;;;;;;;4.73;4.33;;;18.90;92.00;;;;;;5030835;28;20464;-64
2023/10/20 08:31:32;;;;;;;10.30;9.40;;;18.90;92.10;;;;;;4981820;28;20206;-64
2023/10/20 08:34:00;;;;;;;10.63;9.63;;;18.80;92.10;;;;;;5030969;28;20202;-64
2023/10/20 08:36:26;;;;;;;7.20;6.07;;;18.70;92.30;;;;;;5030939;28;20350;-64
2023/10/20 08:38:53;;;;;;;7.20;6.60;;;18.70;92.20;;;;;;5010989;28;20211;-63
2023/10/20 08:41:21;;;;;;;5.93;5.30;;;18.80;92.30;;;;;;5011181;28;20203;-64
2023/10/20 08:43:48;;;;;;;4.93;4.53;;;18.90;92.30;;;;;;5011103;28;20946;-64
2023/10/20 08:46:18;;;;;;;6.37;4.67;;;19.00;92.30;;;;;;5011016;28;20325;-65
2023/10/20 08:48:47;;;;;;;5.37;4.87;;;19.10;92.30;;;;;;5018558;28;20230;-65
2023/10/20 08:51:15;;;;;;;5.23;4.73;;;19.20;92.20;;;;;;5031182;28;20214;-64
2023/10/20 08:53:42;;;;;;;4.57;4.17;;;19.20;92.20;;;;;;5030231;28;20210;-64
2023/10/20 08:56:10;;;;;;;4.43;4.03;;;19.30;92.40;;;;;;5016411;28;20695;-64
2023/10/20 08:58:38;;;;;;;4.80;4.40;;;19.30;92.40;;;;;;4976576;28;20454;-64
2023/10/20 09:01:05;;;;;;;3.83;3.53;;;19.40;92.40;;;;;;5030023;28;20206;-65
2023/10/20 09:03:41;;;;;;;4.20;3.77;;;19.40;92.30;;;;;;5031093;28;20226;-65
2023/10/20 09:06:10;;;;;;;4.93;4.37;;;19.50;92.40;;;;;;5032060;28;20349;-64
2023/10/20 09:08:37;;;;;;;4.97;4.57;;;19.60;92.40;;;;;;5031340;28;20218;-65
2023/10/20 09:11:07;;;;;;;4.73;4.27;;;19.60;92.50;;;;;;5031909;28;20217;-65
2023/10/20 09:13:36;;;;;;;4.53;4.13;;;19.60;92.40;;;;;;5032033;28;20641;-64
2023/10/20 09:16:07;;;;;;;4.30;4.00;;;19.60;92.50;;;;;;5031941;28;20234;-65
2023/10/20 09:18:43;;;;;;;5.33;4.57;;;19.70;92.40;;;;;;5029150;28;20214;-64
2023/10/20 09:21:12;;;;;;;5.40;4.90;;;19.70;92.20;;;;;;5019427;28;20202;-64
2023/10/20 09:23:40;;;;;;;5.10;4.60;;;19.70;92.00;;;;;;5030224;28;20230;-64
2023/10/20 09:26:07;;;;;;;4.33;3.90;;;19.70;92.10;;;;;;5031903;28;20693;-64
2023/10/20 09:28:34;;;;;;;4.83;4.43;;;19.80;92.30;;;;;;5013139;28;20787;-65
2023/10/20 09:31:01;;;;;;;5.37;4.87;;;19.90;92.40;;;;;;5010883;28;20290;-64
2023/10/20 09:33:28;;;;;;;5.13;4.43;;;19.90;92.10;;;;;;5011666;28;20213;-65
2023/10/20 09:35:59;;;;;;;5.20;4.70;;;19.90;92.00;;;;;;5011966;28;20239;-65
2023/10/20 09:38:27;;;;;;;7.67;5.13;;;20.00;92.20;;;;;;5030677;28;20299;-65
2023/10/20 09:41:03;;;;;;;5.67;4.53;;;20.00;91.80;;;;;;5031384;28;20214;-65
2023/10/20 09:43:35;;;;;;;5.20;4.13;;;20.10;91.80;;;;;;5031262;28;20297;-64
2023/10/20 09:46:13;;;;;;;4.03;3.53;;;20.10;91.90;;;;;;5031644;28;20244;-65
2023/10/20 09:48:41;;;;;;;5.20;4.53;;;20.10;91.60;;;;;;5026439;28;20241;-64
2023/10/20 09:51:10;;;;;;;5.30;4.10;;;20.20;91.70;;;;;;5011793;28;20210;-64
2023/10/20 09:53:38;;;;;;;4.40;3.90;;;20.20;91.80;;;;;;5015096;28;20639;-65
2023/10/20 09:56:06;;;;;;;3.93;3.60;;;20.20;92.00;;;;;;5011568;28;20231;-64
2023/10/20 09:58:34;;;;;;;4.33;3.50;;;20.20;92.00;;;;;;5024946;28;20209;-64
2023/10/20 10:01:02;;;;;;;3.83;3.47;;;20.30;92.10;;;;;;5020109;28;20222;-64
2023/10/20 10:03:34;;;;;;;4.53;3.40;;;20.30;92.10;;;;;;5039910;28;20572;-64
2023/10/20 10:06:05;;;;;;;6.67;3.73;;;20.20;91.70;;;;;;5026453;28;20348;-67
2023/10/20 10:08:33;;;;;;;4.60;3.80;;;20.20;92.50;;;;;;5050790;28;20257;-65
2023/10/20 10:11:00;;;;;;;3.50;3.17;;;20.20;92.40;;;;;;5038845;28;20526;-65
2023/10/20 10:13:35;;;;;;;4.60;4.07;;;20.20;92.40;;;;;;5035092;28;20194;-64
2023/10/20 10:16:13;;;;;;;4.17;3.77;;;20.20;92.30;;;;;;5028469;28;20249;-64
2023/10/20 10:18:46;;;;;;;8.33;5.87;;;20.20;92.30;;;;;;5024441;28;20264;-64
2023/10/20 10:21:24;;;;;;;4.30;3.67;;;20.10;92.50;;;;;;5018506;28;20230;-65
2023/10/20 10:24:15;;;;;;;4.17;3.60;;;20.10;92.60;;;;;;5023691;28;20205;-64
2023/10/20 10:26:52;;;;;;;3.83;3.40;;;20.10;92.80;;;;;;5030455;28;20202;-65
2023/10/20 10:29:22;;;;;;;4.43;3.20;;;20.10;93.00;;;;;;5030450;28;20297;-64
2023/10/20 10:31:49;;;;;;;3.80;3.40;;;20.10;93.00;;;;;;5018662;28;20210;-65
2023/10/20 10:34:18;;;;;;;3.87;2.93;;;20.00;93.00;;;;;;5023126;28;20253;-63
2023/10/20 10:36:46;;;;;;;4.30;3.03;;;20.10;93.00;;;;;;5031379;28;20231;-64
2023/10/20 10:39:27;;;;;;;4.03;3.00;;;20.10;93.00;;;;;;4976777;28;20203;-65
2023/10/20 10:41:54;;;;;;;3.50;3.20;;;20.10;93.00;;;;;;5010978;28;20226;-65
2023/10/20 10:44:22;;;;;;;5.00;4.50;;;20.20;93.00;;;;;;5016263;28;20195;-65
2023/10/20 10:46:51;;;;;;;3.40;3.03;;;20.30;92.90;;;;;;5023542;28;20276;-65
2023/10/20 10:49:18;;;;;;;2.90;2.60;;;20.30;92.80;;;;;;5018867;28;20563;-64
2023/10/20 10:51:50;;;;;;;3.10;2.80;;;20.60;92.90;;;;;;4992050;28;20675;-64
2023/10/20 10:54:18;;;;;;;3.10;2.80;;;20.70;92.30;;;;;;5028175;28;20574;-65
2023/10/20 10:56:46;;;;;;;3.33;2.80;;;20.70;92.50;;;;;;5025166;28;20223;-66
2023/10/20 10:59:14;;;;;;;3.07;2.60;;;20.80;92.40;;;;;;5010731;28;20294;-64
2023/10/20 11:01:41;;;;;;;4.87;2.90;;;20.90;92.30;;;;;;4994335;28;20330;-65
2023/10/20 11:04:10;;;;;;;3.37;3.00;;;21.00;92.00;;;;;;5010747;28;20290;-65
2023/10/20 11:06:38;;;;;;;2.73;2.53;;;21.10;91.90;;;;;;5018739;28;20387;-65
2023/10/20 11:09:10;;;;;;;4.27;2.70;;;21.20;91.80;;;;;;5030985;28;20227;-65
2023/10/20 11:11:42;;;;;;;2.47;2.27;;;21.30;91.60;;;;;;5025300;28;20203;-65
2023/10/20 11:14:11;;;;;;;4.47;2.63;;;21.40;91.60;;;;;;5015035;28;20204;-65
2023/10/20 11:16:38;;;;;;;2.40;2.20;;;21.50;91.20;;;;;;5016244;28;20237;-66
2023/10/20 11:19:04;;;;;;;2.10;2.00;;;21.50;90.80;;;;;;5014798;28;20214;-66
2023/10/20 11:21:44;;;;;;;2.17;1.90;;;21.60;91.00;;;;;;5022992;28;20644;-65
2023/10/20 11:24:10;;;;;;;1.87;1.63;;;21.70;91.20;;;;;;5034520;28;20854;-64
2023/10/20 11:26:37;;;;;;;1.63;1.53;;;21.70;90.50;;;;;;5034049;28;20208;-64
2023/10/20 11:29:08;;;;;;;2.50;1.80;;;21.70;90.40;;;;;;5034082;28;20230;-65
2023/10/20 11:31:37;;;;;;;1.80;1.70;;;21.80;90.20;;;;;;5034092;28;20207;-66
2023/10/20 11:34:04;;;;;;;3.47;1.70;;;22.00;90.20;;;;;;5034384;28;20213;-66
2023/10/20 11:36:31;;;;;;;1.63;1.17;;;22.10;89.90;;;;;;5031589;28;20230;-66
2023/10/20 11:38:58;;;;;;;1.27;1.10;;;22.20;87.60;;;;;;4965135;28;20203;-70
2023/10/20 11:41:25;;;;;;;1.93;1.13;;;22.10;87.70;;;;;;5013880;28;20261;-69
2023/10/20 11:43:52;;;;;;;1.20;1.10;;;22.10;87.40;;;;;;5014071;28;20318;-70
2023/10/20 11:46:19;;;;;;;1.20;1.10;;;22.20;87.40;;;;;;5014196;28;20737;-70
2023/10/20 11:48:48;;;;;;;0.77;0.77;;;22.30;86.70;;;;;;5013883;28;20249;-70
2023/10/20 11:51:15;;;;;;;1.00;0.90;;;22.40;86.30;;;;;;5013700;28;20238;-70
2023/10/20 11:53:42;;;;;;;0.80;0.80;;;22.60;85.70;;;;;;5013901;28;20206;-70
2023/10/20 11:56:10;;;;;;;0.73;0.73;;;22.60;84.40;;;;;;5013874;28;20303;-70
2023/10/20 11:58:38;;;;;;;1.27;1.03;;;22.60;84.30;;;;;;5015671;28;20218;-70
2023/10/20 12:01:05;;;;;;;1.03;0.93;;;22.50;83.60;;;;;;4998058;28;20218;-69
2023/10/20 12:03:34;;;;;;;1.47;0.90;;;22.50;84.70;;;;;;5033218;28;20788;-64
2023/10/20 12:06:03;;;;;;;0.70;0.70;;;22.40;84.30;;;;;;5030877;28;20198;-68
2023/10/20 12:08:32;;;;;;;1.77;0.70;;;22.30;83.80;;;;;;5016090;28;20221;-68
2023/10/20 12:11:00;;;;;;;0.60;0.60;;;22.40;83.70;;;;;;5022081;28;20579;-69
2023/10/20 12:13:27;;;;;;;1.33;0.73;;;22.30;84.10;;;;;;5014245;28;20210;-69
2023/10/20 12:15:54;;;;;;;1.43;1.00;;;22.30;84.10;;;;;;5024145;28;20222;-68
2023/10/20 12:18:21;;;;;;;1.03;0.93;;;22.30;83.90;;;;;;5038605;28;20203;-68
2023/10/20 12:20:49;;;;;;;0.70;0.70;;;22.30;83.80;;;;;;5025540;28;20285;-68
2023/10/20 12:23:17;;;;;;;1.83;1.07;;;22.40;84.30;;;;;;5029722;28;20219;-69
2023/10/20 12:25:46;;;;;;;1.10;0.93;;;22.40;83.70;;;;;;5032564;28;20198;-68
2023/10/20 12:28:16;;;;;;;0.93;0.90;;;22.50;83.80;;;;;;5033089;28;20215;-68
2023/10/20 12:30:45;;;;;;;1.10;1.00;;;22.50;82.20;;;;;;5008230;28;20230;-68
2023/10/20 12:33:13;;;;;;;1.10;0.90;;;22.30;83.20;;;;;;5013382;28;20286;-69
2023/10/20 12:35:39;;;;;;;0.90;0.90;;;22.30;83.30;;;;;;5012629;28;20227;-69
2023/10/20 12:38:07;;;;;;;1.00;0.80;;;22.40;83.50;;;;;;5012939;28;20325;-69
2023/10/20 12:40:39;;;;;;;1.17;0.73;;;22.40;82.60;;;;;;5013821;28;20634;-69
2023/10/20 12:43:09;;;;;;;0.87;0.57;;;22.50;83.00;;;;;;4977585;28;20207;-69
2023/10/20 12:45:37;;;;;;;0.87;0.87;;;22.60;82.10;;;;;;5014869;28;20618;-70
2023/10/20 12:48:05;;;;;;;0.80;0.80;;;22.90;82.00;;;;;;5012922;28;20644;-70
2023/10/20 12:50:33;;;;;;;0.70;0.50;;;23.20;81.40;;;;;;5012776;28;20235;-70
2023/10/20 12:53:00;;;;;;;0.70;0.50;;;23.60;80.60;;;;;;5013699;28;20282;-70
2023/10/20 12:55:28;;;;;;;1.57;0.73;;;23.90;77.40;;;;;;5012311;28;20678;-70
2023/10/20 12:57:56;;;;;;;0.53;0.53;;;24.20;78.00;;;;;;5031193;28;20226;-70
2023/10/20 13:00:26;;;;;;;0.60;0.60;;;24.30;77.40;;;;;;5031900;28;20751;-70
2023/10/20 13:02:53;;;;;;;1.90;0.60;;;24.40;76.60;;;;;;5030478;28;20257;-70
2023/10/20 13:05:21;;;;;;;1.10;0.93;;;24.10;75.50;;;;;;5032221;28;20317;-70
2023/10/20 13:07:48;;;;;;;1.40;0.90;;;23.90;76.10;;;;;;5022574;28;20205;-70
2023/10/20 13:10:14;;;;;;;1.20;0.70;;;23.70;77.10;;;;;;5020261;28;20199;-70
2023/10/20 13:12:41;;;;;;;0.60;0.60;;;23.60;76.70;;;;;;5022025;28;20210;-70
2023/10/20 13:15:11;;;;;;;0.73;0.63;;;23.50;76.50;;;;;;5027592;28;20206;-70